createdAt,value
2022-10-02T00:00:00.239Z,99.92
2022-10-02T00:02:46.744Z,99.54
2022-10-02T00:05:44.705Z,99.43
2022-10-02T00:08:25.862Z,99.37
2022-10-02T00:11:16.464Z,99.31
2022-10-02T00:13:48.638Z,100.00
2022-10-02T00:16:26.435Z,100.00
2022-10-02T00:18:56.057Z,100.00
2022-10-02T00:21:45.179Z,100.00
2022-10-02T00:25:01.323Z,100.00
2022-10-02T00:27:49.784Z,100.00
2022-10-02T00:30:18.098Z,100.00
2022-10-02T00:33:19.300Z,99.36
2022-10-02T00:36:06.562Z,99.26
2022-10-02T00:38:56.410Z,98.52
2022-10-02T00:41:41.258Z,99.78
2022-10-02T00:44:38.019Z,99.41
2022-10-02T00:47:23.304Z,99.11
2022-10-02T00:50:15.922Z,99.59
2022-10-02T00:52:49.861Z,99.88
2022-10-02T00:55:45.689Z,99.00
2022-10-02T00:58:27.340Z,100.00
2022-10-02T01:01:34.555Z,99.91
2022-10-02T01:04:08.662Z,100.00
2022-10-02T01:06:35.822Z,100.00
2022-10-02T01:09:03.326Z,100.00
2022-10-02T01:11:30.867Z,100.00
2022-10-02T01:13:58.308Z,100.00
2022-10-02T01:16:26.172Z,100.00
2022-10-02T01:18:53.322Z,100.00
2022-10-02T01:21:50.753Z,100.00
2022-10-02T01:24:37.074Z,100.00
2022-10-02T01:27:04.234Z,100.00
2022-10-02T01:29:31.228Z,100.00
2022-10-02T01:31:58.258Z,100.00
2022-10-02T01:34:25.946Z,100.00
2022-10-02T01:36:53.567Z,100.00
2022-10-02T01:39:22.339Z,100.00
2022-10-02T01:41:49.335Z,100.00
2022-10-02T01:44:16.786Z,100.00
2022-10-02T01:47:05.139Z,100.00
2022-10-02T01:49:59.726Z,100.00
2022-10-02T01:52:47.196Z,99.81
2022-10-02T01:56:01.418Z,100.00
2022-10-02T01:59:05.236Z,100.00
2022-10-02T02:01:52.723Z,99.95
2022-10-02T02:04:29.100Z,100.00
2022-10-02T02:07:34.414Z,100.00
2022-10-02T02:10:26.576Z,100.00
2022-10-02T02:13:29.838Z,100.00
2022-10-02T02:16:25.611Z,100.00
2022-10-02T02:19:14.154Z,100.00
2022-10-02T02:22:11.922Z,100.00
2022-10-02T02:24:56.439Z,100.00
2022-10-02T02:27:27.980Z,100.00
2022-10-02T02:30:03.024Z,100.00
2022-10-02T02:32:36.128Z,100.00
2022-10-02T02:35:18.313Z,100.00
2022-10-02T02:37:49.339Z,100.00
2022-10-02T02:40:22.367Z,100.00
2022-10-02T02:43:04.962Z,100.00
2022-10-02T02:45:58.837Z,100.00
2022-10-02T02:48:43.704Z,100.00
2022-10-02T02:51:22.407Z,100.00
2022-10-02T02:53:58.896Z,100.00
2022-10-02T02:56:29.264Z,100.00
2022-10-02T02:59:14.265Z,100.00
2022-10-02T03:01:42.227Z,100.00
2022-10-02T03:04:14.062Z,100.00
2022-10-02T03:06:57.069Z,100.00
2022-10-02T03:09:26.160Z,100.00
2022-10-02T03:12:05.006Z,100.00
2022-10-02T03:15:15.626Z,100.00
2022-10-02T03:18:25.916Z,100.00
2022-10-02T03:21:10.088Z,100.00
2022-10-02T03:23:45.436Z,100.00
2022-10-02T03:26:33.455Z,100.00
2022-10-02T03:29:05.440Z,100.00
2022-10-02T03:31:35.122Z,100.00
2022-10-02T03:34:03.691Z,100.00
2022-10-02T03:36:31.328Z,100.00
2022-10-02T03:41:49.850Z,100.00
2022-10-02T03:44:16.782Z,100.00
2022-10-02T03:46:43.896Z,100.00
2022-10-02T03:49:10.945Z,100.00
2022-10-02T03:51:37.885Z,100.00
2022-10-02T03:54:16.768Z,100.00
2022-10-02T03:56:51.984Z,100.00
2022-10-02T03:59:33.957Z,100.00
2022-10-02T04:02:06.854Z,100.00
2022-10-02T04:04:52.049Z,100.00
2022-10-02T04:07:29.764Z,100.00
2022-10-02T04:10:20.496Z,100.00
2022-10-02T04:12:55.634Z,100.00
2022-10-02T04:15:32.715Z,100.00
2022-10-02T04:18:15.778Z,100.00
2022-10-02T04:20:59.734Z,100.00
2022-10-02T04:23:43.885Z,100.00
2022-10-02T04:26:25.890Z,100.00
2022-10-02T04:29:06.782Z,100.00
2022-10-02T04:31:34.004Z,100.00
2022-10-02T04:34:03.329Z,100.00
2022-10-02T04:37:16.747Z,100.00
2022-10-02T04:40:07.291Z,100.00
2022-10-02T04:43:10.957Z,100.00
2022-10-02T04:45:59.008Z,100.00
2022-10-02T04:48:52.407Z,100.00
2022-10-02T04:51:25.226Z,100.00
2022-10-02T04:54:31.803Z,100.00
2022-10-02T04:57:32.094Z,100.00
2022-10-02T05:00:34.046Z,100.00
2022-10-02T05:03:41.326Z,100.00
2022-10-02T05:06:14.182Z,100.00
2022-10-02T05:09:08.815Z,100.00
2022-10-02T05:12:18.486Z,100.00
2022-10-02T05:15:04.873Z,100.00
2022-10-02T05:17:58.961Z,100.00
2022-10-02T05:21:12.539Z,100.00
2022-10-02T05:24:23.604Z,100.00
2022-10-02T05:27:21.256Z,100.00
2022-10-02T05:30:08.638Z,100.00
2022-10-02T05:33:11.834Z,100.00
2022-10-02T05:35:49.650Z,100.00
2022-10-02T05:38:54.704Z,100.00
2022-10-02T05:41:52.028Z,100.00
2022-10-02T05:44:42.672Z,100.00
2022-10-02T05:47:25.188Z,100.00
2022-10-02T05:50:06.424Z,100.00
2022-10-02T05:53:11.029Z,100.00
2022-10-02T05:56:01.342Z,100.00
2022-10-02T05:58:41.633Z,100.00
2022-10-02T06:01:22.865Z,100.00
2022-10-02T06:04:17.253Z,100.00
2022-10-02T06:06:51.718Z,100.00
2022-10-02T06:09:27.641Z,100.00
2022-10-02T06:12:23.746Z,100.00
2022-10-02T06:15:01.369Z,100.00
2022-10-02T06:17:31.314Z,100.00
2022-10-02T06:20:04.246Z,100.00
2022-10-02T06:22:44.270Z,100.00
2022-10-02T06:25:21.386Z,100.00
2022-10-02T06:27:59.019Z,100.00
2022-10-02T06:30:26.702Z,100.00
2022-10-02T06:33:09.728Z,100.00
2022-10-02T06:35:45.426Z,100.00
2022-10-02T06:39:00.666Z,100.00
2022-10-02T06:41:48.870Z,100.00
2022-10-02T06:44:34.491Z,100.00
2022-10-02T06:47:35.432Z,100.00
2022-10-02T06:50:20.135Z,100.00
2022-10-02T06:53:25.526Z,100.00
2022-10-02T06:56:34.052Z,100.00
2022-10-02T06:59:47.528Z,100.00
2022-10-02T07:02:34.914Z,100.00
2022-10-02T07:05:45.129Z,100.00
2022-10-02T07:08:28.799Z,100.00
2022-10-02T07:11:26.038Z,100.00
2022-10-02T07:14:28.037Z,100.00
2022-10-02T07:17:32.268Z,100.00
2022-10-02T07:20:29.743Z,100.00
2022-10-02T07:23:28.787Z,100.00
2022-10-02T07:26:36.707Z,100.00
2022-10-02T07:29:25.654Z,100.00
2022-10-02T07:32:11.788Z,100.00
2022-10-02T07:34:52.253Z,100.00
2022-10-02T07:37:48.392Z,99.76
2022-10-02T07:40:37.613Z,100.00
2022-10-02T07:43:29.109Z,97.95
2022-10-02T07:46:46.769Z,97.63
2022-10-02T07:49:56.848Z,98.65
2022-10-02T07:52:59.157Z,97.92
2022-10-02T07:55:26.846Z,97.67
2022-10-02T07:58:03.193Z,97.09
2022-10-02T08:00:47.280Z,96.33
2022-10-02T08:03:23.270Z,96.62
2022-10-02T08:05:58.276Z,96.76
2022-10-02T08:08:47.788Z,95.65
2022-10-02T08:11:30.284Z,95.43
2022-10-02T08:14:03.501Z,95.67
2022-10-02T08:16:41.190Z,94.54
2022-10-02T08:19:16.798Z,95.15
2022-10-02T08:21:50.104Z,95.74
2022-10-02T08:24:30.689Z,95.25
2022-10-02T08:27:23.431Z,94.05
2022-10-02T08:30:04.361Z,93.46
2022-10-02T08:32:36.264Z,93.00
2022-10-02T08:35:14.274Z,93.70
2022-10-02T08:38:32.236Z,94.41
2022-10-02T08:41:52.700Z,92.22
2022-10-02T08:44:57.413Z,90.51
2022-10-02T08:47:54.578Z,89.55
2022-10-02T08:51:06.234Z,88.35
2022-10-02T08:54:04.418Z,86.82
2022-10-02T08:57:01.422Z,85.99
2022-10-02T09:00:00.161Z,84.08
2022-10-02T09:03:05.329Z,83.77
2022-10-02T09:06:28.615Z,82.89
2022-10-02T09:09:59.623Z,80.57
2022-10-02T09:12:58.277Z,78.02
2022-10-02T09:15:52.895Z,78.99
2022-10-02T09:19:03.014Z,78.65
2022-10-02T09:22:00.201Z,78.47
2022-10-02T09:25:13.376Z,79.78
2022-10-02T09:27:59.278Z,78.39
2022-10-02T09:31:06.049Z,78.02
2022-10-02T09:34:18.089Z,77.57
2022-10-02T09:37:18.304Z,76.53
2022-10-02T09:40:25.783Z,75.12
2022-10-02T09:43:11.942Z,69.01
2022-10-02T09:46:37.061Z,68.35
2022-10-02T09:50:10.240Z,64.70
2022-10-02T09:53:53.317Z,63.56
2022-10-02T09:56:47.447Z,61.32
2022-10-02T09:59:35.583Z,60.66
2022-10-02T10:02:25.931Z,59.12
2022-10-02T10:05:33.245Z,55.92
2022-10-02T10:08:41.751Z,54.20
2022-10-02T10:11:36.012Z,55.46
2022-10-02T10:14:11.759Z,52.03
2022-10-02T10:16:53.551Z,51.05
2022-10-02T10:20:06.543Z,50.84
2022-10-02T10:22:57.732Z,51.71
2022-10-02T10:26:20.814Z,50.94
2022-10-02T10:29:04.128Z,51.31
2022-10-02T10:31:59.246Z,49.73
2022-10-02T10:34:54.464Z,49.21
2022-10-02T10:38:00.864Z,50.02
2022-10-02T10:40:46.412Z,50.04
2022-10-02T10:44:00.039Z,51.48
2022-10-02T10:47:08.470Z,48.88
2022-10-02T10:50:10.897Z,50.45
2022-10-02T10:53:04.430Z,51.36
2022-10-02T10:56:36.930Z,55.20
2022-10-02T10:59:33.710Z,62.40
2022-10-02T11:02:47.408Z,65.56
2022-10-02T11:05:48.057Z,66.57
2022-10-02T11:08:18.401Z,65.65
2022-10-02T11:11:09.209Z,64.76
2022-10-02T11:14:07.233Z,65.01
2022-10-02T11:17:06.329Z,65.48
2022-10-02T11:20:08.407Z,67.58
2022-10-02T11:23:00.372Z,67.56
2022-10-02T11:26:06.204Z,67.59
2022-10-02T11:29:16.089Z,67.75
2022-10-02T11:32:31.778Z,66.54
2022-10-02T11:35:13.559Z,67.03
2022-10-02T11:38:09.392Z,67.11
2022-10-02T11:41:13.208Z,68.82
2022-10-02T11:44:12.305Z,68.55
2022-10-02T11:47:22.659Z,67.73
2022-10-02T11:50:46.663Z,67.37
2022-10-02T11:53:34.484Z,67.84
2022-10-02T11:56:25.214Z,68.65
2022-10-02T11:59:35.508Z,68.23
2022-10-02T12:02:22.401Z,66.68
2022-10-02T12:05:15.513Z,66.55
2022-10-02T12:08:29.689Z,65.44
2022-10-02T12:11:27.048Z,65.12
2022-10-02T12:14:22.510Z,65.48
2022-10-02T12:17:16.591Z,65.52
2022-10-02T12:20:31.166Z,65.86
2022-10-02T12:23:43.262Z,66.00
2022-10-02T12:27:04.643Z,67.37
2022-10-02T12:29:51.417Z,66.60
2022-10-02T12:32:38.554Z,67.60
2022-10-02T12:35:42.789Z,67.01
2022-10-02T12:38:28.895Z,67.09
2022-10-02T12:41:03.340Z,67.49
2022-10-02T12:44:17.141Z,65.63
2022-10-02T12:47:17.664Z,66.10
2022-10-02T12:50:23.322Z,66.24
2022-10-02T12:53:11.666Z,66.91
2022-10-02T12:56:16.412Z,65.97
2022-10-02T12:59:10.775Z,66.22
2022-10-02T13:02:18.144Z,66.55
2022-10-02T13:05:20.872Z,66.04
2022-10-02T13:08:21.218Z,64.78
2022-10-02T13:10:57.410Z,65.08
2022-10-02T13:14:07.839Z,65.08
2022-10-02T13:17:23.046Z,64.49
2022-10-02T13:20:09.081Z,65.33
2022-10-02T13:23:17.895Z,65.59
2022-10-02T13:26:32.182Z,65.77
2022-10-02T13:29:32.745Z,66.33
2022-10-02T13:32:26.951Z,67.59
2022-10-02T13:35:21.180Z,67.32
2022-10-02T13:38:34.918Z,69.37
2022-10-02T13:41:46.663Z,69.03
2022-10-02T13:44:53.891Z,70.21
2022-10-02T13:47:58.966Z,70.52
2022-10-02T13:50:59.894Z,70.76
2022-10-02T13:54:18.476Z,69.47
2022-10-02T13:57:08.820Z,69.24
2022-10-02T14:00:23.900Z,67.76
2022-10-02T14:03:18.484Z,67.62
2022-10-02T14:06:23.096Z,67.52
2022-10-02T14:09:12.482Z,67.48
2022-10-02T14:12:30.273Z,67.83
2022-10-02T14:15:38.677Z,68.35
2022-10-02T14:18:22.228Z,67.64
2022-10-02T14:21:13.677Z,65.97
2022-10-02T14:25:00.634Z,65.71
2022-10-02T14:27:57.000Z,64.33
2022-10-02T14:30:55.153Z,63.12
2022-10-02T14:34:02.458Z,62.07
2022-10-02T14:37:18.425Z,61.72
2022-10-02T14:39:45.746Z,63.46
2022-10-02T14:42:44.321Z,63.71
2022-10-02T14:46:04.380Z,63.47
2022-10-02T14:48:59.021Z,64.12
2022-10-02T14:52:01.478Z,64.07
2022-10-02T14:54:44.039Z,64.16
2022-10-02T14:57:43.633Z,63.67
2022-10-02T15:00:22.024Z,64.14
2022-10-02T15:03:10.186Z,65.04
2022-10-02T15:06:01.717Z,64.55
2022-10-02T15:08:53.220Z,64.23
2022-10-02T15:11:43.084Z,64.59
2022-10-02T15:14:19.757Z,65.60
2022-10-02T15:17:15.192Z,65.91
2022-10-02T15:20:06.437Z,66.55
2022-10-02T15:22:46.732Z,67.70
2022-10-02T15:25:31.942Z,69.48
2022-10-02T15:28:36.815Z,69.89
2022-10-02T15:31:31.730Z,71.07
2022-10-02T15:34:22.890Z,71.08
2022-10-02T15:37:32.858Z,71.96
2022-10-02T15:40:33.722Z,72.17
2022-10-02T15:43:50.562Z,73.71
2022-10-02T15:47:16.035Z,74.68
2022-10-02T15:50:14.394Z,75.28
2022-10-02T15:52:51.991Z,75.59
2022-10-02T15:55:50.768Z,75.56
2022-10-02T15:58:29.998Z,75.91
2022-10-02T16:01:41.508Z,76.06
2022-10-02T16:04:52.602Z,76.93
2022-10-02T16:07:47.290Z,77.54
2022-10-02T16:10:36.117Z,77.80
2022-10-02T16:13:27.512Z,78.10
2022-10-02T16:15:58.435Z,78.56
2022-10-02T16:19:11.940Z,79.82
2022-10-02T16:22:34.539Z,80.11
2022-10-02T16:25:39.512Z,79.20
2022-10-02T16:28:31.645Z,79.51
2022-10-02T16:31:03.662Z,80.23
2022-10-02T16:34:34.245Z,80.75
2022-10-02T16:37:29.375Z,81.15
2022-10-02T16:40:01.598Z,81.01
2022-10-02T16:43:12.927Z,82.24
2022-10-02T16:46:01.485Z,82.99
2022-10-02T16:49:00.692Z,83.35
2022-10-02T16:52:01.896Z,82.39
2022-10-02T16:55:12.979Z,82.58
2022-10-02T16:57:39.795Z,82.89
2022-10-02T17:00:16.871Z,83.80
2022-10-02T17:03:23.935Z,83.88
2022-10-02T17:06:15.764Z,83.78
2022-10-02T17:09:20.245Z,84.02
2022-10-02T17:11:57.639Z,84.81
2022-10-02T17:14:52.657Z,85.48
2022-10-02T17:17:25.404Z,85.88
2022-10-02T17:20:01.115Z,85.31
2022-10-02T17:22:44.140Z,86.14
2022-10-02T17:25:23.099Z,86.63
2022-10-02T17:28:20.839Z,86.97
2022-10-02T17:31:09.455Z,87.38
2022-10-02T17:33:57.306Z,87.16
2022-10-02T17:36:41.305Z,88.09
2022-10-02T17:39:58.900Z,89.22
2022-10-02T17:42:41.251Z,89.61
2022-10-02T17:45:42.933Z,89.50
2022-10-02T17:48:21.770Z,90.26
2022-10-02T17:51:47.126Z,90.01
2022-10-02T17:54:49.107Z,90.27
2022-10-02T17:57:22.789Z,90.24
2022-10-02T18:00:22.028Z,90.45
2022-10-02T18:03:11.194Z,91.08
2022-10-02T18:06:14.839Z,91.83
2022-10-02T18:09:15.734Z,91.82
2022-10-02T18:12:15.854Z,92.87
2022-10-02T18:15:28.513Z,91.67
2022-10-02T18:18:18.440Z,92.54
2022-10-02T18:21:12.067Z,92.90
2022-10-02T18:24:04.957Z,93.58
2022-10-02T18:27:18.416Z,93.84
2022-10-02T18:30:17.364Z,93.56
2022-10-02T18:33:32.861Z,94.41
2022-10-02T18:36:17.994Z,94.16
2022-10-02T18:39:12.162Z,93.22
2022-10-02T18:41:54.512Z,93.78
2022-10-02T18:44:45.235Z,93.54
2022-10-02T18:47:41.034Z,93.47
2022-10-02T18:50:39.748Z,94.09
2022-10-02T18:53:28.781Z,94.18
2022-10-02T18:56:12.271Z,93.26
2022-10-02T18:59:14.615Z,92.95
2022-10-02T19:02:02.503Z,92.34
2022-10-02T19:05:08.991Z,91.83
2022-10-02T19:07:50.322Z,91.86
2022-10-02T19:10:29.605Z,91.38
2022-10-02T19:13:17.996Z,91.36
2022-10-02T19:15:47.840Z,92.10
2022-10-02T19:18:27.904Z,91.71
2022-10-02T19:21:05.543Z,91.45
2022-10-02T19:24:01.400Z,91.42
2022-10-02T19:26:33.357Z,91.41
2022-10-02T19:29:20.024Z,90.73
2022-10-02T19:31:47.194Z,89.86
2022-10-02T19:34:28.275Z,90.20
2022-10-02T19:37:04.233Z,90.60
2022-10-02T19:39:49.287Z,89.99
2022-10-02T19:42:31.333Z,89.61
2022-10-02T19:45:08.964Z,91.59
2022-10-02T19:47:49.329Z,93.21
2022-10-02T19:50:36.337Z,93.36
2022-10-02T19:53:15.715Z,93.94
2022-10-02T19:55:43.715Z,94.96
2022-10-02T19:58:23.085Z,93.25
2022-10-02T20:00:52.359Z,92.88
2022-10-02T20:03:25.042Z,93.81
2022-10-02T20:06:03.143Z,94.75
2022-10-02T20:08:42.477Z,95.00
2022-10-02T20:11:34.280Z,95.77
2022-10-02T20:14:15.545Z,96.13
2022-10-02T20:17:01.272Z,95.69
2022-10-02T20:19:34.423Z,95.98
2022-10-02T20:22:22.752Z,96.52
2022-10-02T20:25:10.010Z,96.51
2022-10-02T20:28:14.164Z,96.38
2022-10-02T20:31:18.328Z,96.76
2022-10-02T20:34:01.039Z,97.12
2022-10-02T20:36:39.942Z,96.96
2022-10-02T20:39:17.806Z,97.25
2022-10-02T20:42:59.043Z,96.80
2022-10-02T20:45:46.660Z,97.37
2022-10-02T20:49:09.490Z,97.80
2022-10-02T20:52:24.447Z,98.50
2022-10-02T20:55:50.564Z,98.97
2022-10-02T20:59:03.828Z,98.69
2022-10-02T21:02:13.904Z,99.22
2022-10-02T21:05:05.181Z,100.00
2022-10-02T21:07:50.692Z,100.00
2022-10-02T21:10:45.238Z,100.00
2022-10-02T21:13:19.497Z,100.00
2022-10-02T21:16:32.628Z,100.00
2022-10-02T21:19:21.362Z,100.00
2022-10-02T21:22:19.934Z,100.00
2022-10-02T21:25:35.902Z,100.00
2022-10-02T21:28:14.627Z,100.00
2022-10-02T21:30:53.143Z,100.00
2022-10-02T21:33:27.667Z,100.00
2022-10-02T21:36:18.227Z,100.00
2022-10-02T21:39:26.593Z,100.00
2022-10-02T21:42:34.597Z,100.00
2022-10-02T21:45:47.922Z,100.00
2022-10-02T21:49:06.690Z,100.00
2022-10-02T21:51:53.142Z,100.00
2022-10-02T21:54:42.902Z,100.00
2022-10-02T21:57:56.675Z,100.00
2022-10-02T22:00:28.373Z,100.00
2022-10-02T22:03:25.480Z,100.00
2022-10-02T22:06:20.896Z,100.00
2022-10-02T22:09:03.744Z,100.00
2022-10-02T22:11:47.552Z,100.00
2022-10-02T22:14:32.856Z,100.00
2022-10-02T22:17:13.445Z,100.00
2022-10-02T22:20:26.258Z,100.00
2022-10-02T22:23:23.530Z,100.00
2022-10-02T22:26:04.906Z,100.00
2022-10-02T22:28:43.941Z,100.00
2022-10-02T22:31:52.454Z,100.00
2022-10-02T22:34:45.038Z,100.00
2022-10-02T22:37:33.651Z,100.00
2022-10-02T22:40:30.183Z,100.00
2022-10-02T22:43:06.620Z,100.00
2022-10-02T22:45:45.633Z,100.00
2022-10-02T22:51:18.727Z,100.00
2022-10-02T22:53:59.823Z,100.00
2022-10-02T22:56:42.801Z,100.00
2022-10-02T22:59:18.208Z,100.00
2022-10-02T23:01:51.522Z,100.00
2022-10-02T23:04:47.268Z,100.00
2022-10-02T23:07:37.780Z,100.00
2022-10-02T23:10:35.553Z,100.00
2022-10-02T23:13:12.717Z,100.00
2022-10-02T23:16:12.839Z,100.00
2022-10-02T23:18:54.283Z,100.00
2022-10-02T23:21:49.452Z,100.00
2022-10-02T23:24:31.914Z,100.00
2022-10-02T23:27:48.370Z,100.00
2022-10-02T23:30:21.531Z,100.00
2022-10-02T23:33:18.261Z,100.00
2022-10-02T23:35:59.598Z,100.00
